Time;durP1;ratioP1;P1;durP2;ratioP2;P2;SDS_P1;SDS_P2;PMS_P1;PMS_P2;Temp;Humidity;BMP_temperature;BMP_pressure;BME280_temperature;BME280_humidity;BME280_pressure;Samples;Min_cycle;Max_cycle;Signal;HPM_P1;HPM_P2
2021/11/10 00:00:19;;;;;;;9.68;7.50;;;;;;;4.52;67.75;97434.38;5012736;28;20054;-75
2021/11/10 00:02:47;;;;;;;10.55;6.75;;;;;;;4.47;67.92;97444.28;5013057;28;20439;-76
2021/11/10 00:05:17;;;;;;;10.30;7.40;;;;;;;4.41;67.52;97431.84;5012713;28;20077;-75
2021/11/10 00:07:45;;;;;;;9.65;7.57;;;;;;;4.36;67.70;97441.72;5012713;28;20049;-75
2021/11/10 00:10:14;;;;;;;9.18;6.88;;;;;;;4.32;67.67;97437.75;5012714;28;20049;-76
2021/11/10 00:12:43;;;;;;;11.95;7.35;;;;;;;4.30;68.05;97440.44;5012831;28;20116;-75
2021/11/10 00:15:11;;;;;;;9.13;6.57;;;;;;;4.33;68.95;97439.41;5012469;28;20042;-75
2021/11/10 00:17:39;;;;;;;13.10;6.78;;;;;;;4.41;68.49;97442.19;5012707;28;20050;-75
2021/11/10 00:20:09;;;;;;;9.27;6.65;;;;;;;4.41;68.28;97442.19;5012355;28;20053;-75
2021/11/10 00:22:39;;;;;;;9.35;6.05;;;;;;;4.42;68.61;97446.41;5012923;28;20053;-75
2021/11/10 00:25:07;;;;;;;11.18;6.20;;;;;;;4.45;68.58;97435.00;5012378;28;20499;-75
2021/11/10 00:27:35;;;;;;;8.15;6.10;;;;;;;4.47;68.76;97436.53;5012474;28;20068;-75
2021/11/10 00:30:03;;;;;;;7.05;5.60;;;;;;;4.50;68.89;97438.88;5012333;28;20046;-75
2021/11/10 00:32:31;;;;;;;9.95;5.95;;;;;;;4.57;69.12;97430.63;5012477;28;20061;-75
2021/11/10 00:34:58;;;;;;;7.85;5.10;;;;;;;4.62;68.86;97437.06;5012661;28;20061;-75
2021/11/10 00:37:26;;;;;;;10.48;5.85;;;;;;;4.69;68.88;97434.81;5018064;28;20052;-75
2021/11/10 00:39:55;;;;;;;8.05;5.68;;;;;;;4.76;68.93;97435.94;5025352;28;20049;-75
2021/11/10 00:42:22;;;;;;;6.93;5.32;;;;;;;4.83;69.00;97431.09;5018661;28;20050;-75
2021/11/10 00:44:49;;;;;;;8.77;5.90;;;;;;;4.86;69.30;97434.25;5013199;28;20548;-75
2021/11/10 00:47:17;;;;;;;7.97;5.50;;;;;;;4.89;69.52;97433.19;5068605;22;20053;-76
2021/11/10 00:49:45;;;;;;;8.20;5.55;;;;;;;4.91;69.52;97431.28;5051580;28;20072;-76
2021/11/10 00:52:12;;;;;;;8.50;5.68;;;;;;;4.92;69.30;97431.16;5052761;28;20049;-77
2021/11/10 00:54:39;;;;;;;10.13;6.22;;;;;;;4.94;69.06;97439.63;5052515;28;20455;-76
2021/11/10 00:57:08;;;;;;;11.32;5.90;;;;;;;4.95;69.83;97443.03;5052046;28;20518;-76
2021/11/10 00:59:36;;;;;;;8.18;5.75;;;;;;;4.99;69.49;97446.19;5052124;28;20056;-76
2021/11/10 01:02:05;;;;;;;10.35;6.38;;;;;;;5.02;69.74;97454.50;5052674;28;20045;-76
2021/11/10 01:04:32;;;;;;;9.20;6.10;;;;;;;5.01;69.83;97454.63;5053090;28;20084;-76
2021/11/10 01:07:00;;;;;;;9.48;5.95;;;;;;;5.01;70.05;97444.28;5052663;28;20476;-76
2021/11/10 01:09:28;;;;;;;8.50;6.13;;;;;;;4.95;70.01;97446.44;5052046;28;20045;-77
2021/11/10 01:11:55;;;;;;;7.63;5.70;;;;;;;4.90;69.03;97443.41;5052525;28;20049;-76
2021/11/10 01:14:24;;;;;;;9.32;6.55;;;;;;;4.82;69.06;97443.19;5052312;28;20067;-76
2021/11/10 01:16:52;;;;;;;9.23;5.82;;;;;;;4.78;69.12;97452.16;5052001;28;20052;-77
2021/11/10 01:19:19;;;;;;;7.70;5.32;;;;;;;4.79;69.67;97455.53;5051943;28;20476;-76
2021/11/10 01:21:47;;;;;;;7.82;6.28;;;;;;;4.83;69.62;97462.94;5052424;28;20071;-76
2021/11/10 01:24:14;;;;;;;8.77;6.22;;;;;;;4.87;70.63;97451.38;5052218;28;20053;-75
2021/11/10 01:26:42;;;;;;;9.52;6.57;;;;;;;4.92;70.90;97446.69;5051844;28;20491;-77
2021/11/10 01:29:10;;;;;;;10.60;6.47;;;;;;;4.95;69.81;97440.44;5051797;28;20053;-78
2021/11/10 01:31:38;;;;;;;9.75;5.82;;;;;;;4.98;70.79;97444.53;5052208;28;20568;-76
2021/11/10 01:34:08;;;;;;;9.00;6.13;;;;;;;4.98;69.95;97436.78;5052471;28;20691;-77
2021/11/10 01:36:37;;;;;;;11.75;6.25;;;;;;;4.98;69.58;97452.28;5052309;28;20045;-78
2021/11/10 01:39:05;;;;;;;10.23;6.38;;;;;;;4.94;69.06;97447.38;5054608;28;20462;-78
2021/11/10 01:41:39;;;;;;;12.05;6.80;;;;;;;4.86;69.26;97436.84;5056210;28;20087;-79
2021/11/10 01:44:14;;;;;;;15.20;7.05;;;;;;;4.78;69.27;97441.00;5056139;28;20052;-76
2021/11/10 01:46:43;;;;;;;9.20;6.43;;;;;;;4.69;69.24;97434.81;5055673;28;20083;-76
2021/11/10 01:49:11;;;;;;;11.38;7.47;;;;;;;4.66;69.49;97430.72;5056236;28;20053;-76
2021/11/10 01:51:42;;;;;;;10.80;7.47;;;;;;;4.67;69.71;97424.59;5055524;28;20549;-76
2021/11/10 01:54:12;;;;;;;10.27;7.03;;;;;;;4.69;70.33;97408.97;5055178;28;20095;-77
2021/11/10 01:56:40;;;;;;;8.10;6.65;;;;;;;4.72;70.27;97414.72;5054986;28;20049;-76
2021/11/10 01:59:08;;;;;;;8.77;6.22;;;;;;;4.75;69.80;97409.28;5054801;28;20048;-76
2021/11/10 02:01:44;;;;;;;13.38;6.63;;;;;;;4.73;69.36;97394.84;5055259;28;20052;-76
2021/11/10 02:04:12;;;;;;;9.95;6.35;;;;;;;4.67;69.46;97400.50;5055413;28;20087;-77
2021/11/10 02:06:40;;;;;;;8.85;6.78;;;;;;;4.63;69.58;97399.13;5054825;28;20049;-77
2021/11/10 02:09:07;;;;;;;10.60;6.13;;;;;;;4.62;69.91;97387.97;5054527;28;20499;-77
2021/11/10 02:11:35;;;;;;;10.00;6.78;;;;;;;4.59;69.26;97382.22;5055075;28;20045;-77
2021/11/10 02:14:03;;;;;;;9.70;6.63;;;;;;;4.52;69.29;97376.72;5054887;28;20102;-77
2021/11/10 02:16:31;;;;;;;12.20;7.05;;;;;;;4.45;69.66;97379.00;5054770;28;20053;-77
2021/11/10 02:19:00;;;;;;;8.10;6.68;;;;;;;4.42;69.84;97383.59;5054155;28;20514;-78
2021/11/10 02:21:31;;;;;;;7.90;6.13;;;;;;;4.39;69.43;97387.22;5054832;28;20049;-77
2021/11/10 02:23:59;;;;;;;9.43;6.90;;;;;;;4.33;69.21;97367.09;5054904;28;20049;-77
2021/11/10 02:26:26;;;;;;;11.15;7.10;;;;;;;4.25;69.56;97352.19;5054316;28;20049;-80
2021/11/10 02:28:54;;;;;;;11.70;7.40;;;;;;;4.20;69.95;97362.09;5054095;28;20064;-80
2021/11/10 02:31:26;;;;;;;10.32;7.25;;;;;;;4.13;69.91;97354.00;5054707;28;20091;-77
2021/11/10 02:33:53;;;;;;;10.10;7.05;;;;;;;4.06;70.16;97355.41;5054826;28;20479;-77
2021/11/10 02:36:20;;;;;;;10.82;7.50;;;;;;;4.03;70.32;97376.34;5054867;28;20048;-78
2021/11/10 02:38:51;;;;;;;13.82;8.18;;;;;;;3.98;70.34;97387.94;5054103;28;20044;-80
2021/11/10 02:41:19;;;;;;;11.32;7.78;;;;;;;3.95;70.50;97372.72;5054939;28;20102;-82
2021/11/10 02:43:46;;;;;;;13.27;7.97;;;;;;;3.95;70.95;97375.28;5054903;28;20045;-78
2021/11/10 02:46:14;;;;;;;10.82;8.27;;;;;;;3.93;70.80;97375.41;5054794;28;20064;-78
2021/11/10 02:48:41;;;;;;;17.52;8.55;;;;;;;3.86;70.89;97382.81;5054732;28;20049;-77
2021/11/10 02:51:09;;;;;;;11.43;8.82;;;;;;;3.82;70.81;97378.81;5055496;28;20052;-77
2021/11/10 02:53:36;;;;;;;10.98;8.23;;;;;;;3.80;71.01;97385.06;5054494;28;20052;-77
2021/11/10 02:56:05;;;;;;;10.93;8.10;;;;;;;3.78;71.03;97381.78;5053790;28;20076;-79
2021/11/10 02:58:33;;;;;;;12.23;8.27;;;;;;;3.74;71.20;97370.03;5053415;28;20052;-77
2021/11/10 03:01:02;;;;;;;12.27;8.50;;;;;;;3.74;71.34;97375.22;5054105;28;20049;-77
2021/11/10 03:03:30;;;;;;;13.45;8.60;;;;;;;3.77;71.23;97380.16;5054204;28;20056;-78
2021/11/10 03:05:58;;;;;;;13.00;8.60;;;;;;;3.78;71.20;97371.44;5054147;28;20052;-79
2021/11/10 03:08:25;;;;;;;15.30;8.73;;;;;;;3.86;72.85;97358.78;5054237;28;20064;-77
2021/11/10 03:10:53;;;;;;;11.40;8.32;;;;;;;4.00;73.28;97380.91;5059745;28;20053;-78
2021/11/10 03:13:26;;;;;;;12.30;7.67;;;;;;;4.05;71.35;97382.19;5074256;28;20053;-79
2021/11/10 03:15:54;;;;;;;9.48;7.47;;;;;;;4.04;71.64;97388.28;5065710;28;20053;-77
2021/11/10 03:18:21;;;;;;;10.38;7.15;;;;;;;4.09;71.95;97388.75;5053958;28;20049;-78
2021/11/10 03:20:49;;;;;;;10.93;8.27;;;;;;;4.11;70.67;97389.47;5053814;28;20525;-78
2021/11/10 03:23:16;;;;;;;9.80;7.60;;;;;;;4.11;70.78;97388.63;5059918;28;20137;-79
2021/11/10 03:25:44;;;;;;;8.93;7.10;;;;;;;4.13;70.56;97392.75;5055447;28;20045;-77
2021/11/10 03:28:12;;;;;;;9.00;7.10;;;;;;;4.20;71.19;97387.06;5053382;28;20049;-77
2021/11/10 03:30:41;;;;;;;9.50;6.78;;;;;;;4.28;72.01;97395.03;5053298;28;20131;-77
2021/11/10 03:33:08;;;;;;;8.93;7.00;;;;;;;4.36;71.93;97384.91;5053263;28;20044;-75
2021/11/10 03:35:36;;;;;;;10.23;7.18;;;;;;;4.39;71.24;97391.59;5052963;28;20052;-78
2021/11/10 03:38:03;;;;;;;10.82;7.80;;;;;;;4.37;70.11;97389.13;5052952;28;20048;-77
2021/11/10 03:40:31;;;;;;;10.95;7.75;;;;;;;4.36;71.09;97382.31;5052511;28;20057;-79
2021/11/10 03:42:58;;;;;;;18.13;9.15;;;;;;;4.34;70.25;97379.03;5054155;28;20060;-78
2021/11/10 03:45:26;;;;;;;13.38;9.07;;;;;;;4.24;69.48;97378.97;5054312;28;20422;-77
2021/11/10 03:47:57;;;;;;;13.90;9.57;;;;;;;4.17;69.57;97377.00;5053258;28;20048;-76
2021/11/10 03:50:24;;;;;;;10.73;7.70;;;;;;;4.15;70.06;97371.13;5052977;28;20048;-76
2021/11/10 03:52:52;;;;;;;12.68;8.48;;;;;;;4.12;69.59;97365.25;5052928;28;20057;-78
2021/11/10 03:55:19;;;;;;;11.27;9.05;;;;;;;4.07;69.66;97366.59;5053105;28;20053;-78
2021/11/10 03:57:47;;;;;;;15.88;10.15;;;;;;;4.02;69.58;97374.66;5052603;28;20499;-76
2021/11/10 04:00:15;;;;;;;10.02;8.75;;;;;;;4.00;70.05;97366.25;5052000;28;20418;-76
2021/11/10 04:02:42;;;;;;;18.48;10.80;;;;;;;3.96;69.79;97369.19;5052472;28;20045;-76
2021/11/10 04:05:11;;;;;;;15.85;11.13;;;;;;;3.84;70.05;97355.50;5052452;28;20053;-76
2021/11/10 04:07:39;;;;;;;15.75;11.85;;;;;;;3.74;70.13;97351.97;5052787;28;20049;-77
2021/11/10 04:10:07;;;;;;;17.77;11.40;;;;;;;3.66;70.32;97356.00;5052310;28;20426;-76
2021/11/10 04:12:34;;;;;;;14.52;10.68;;;;;;;3.63;70.53;97352.81;5053055;28;20064;-77
2021/11/10 04:15:02;;;;;;;20.27;12.25;;;;;;;3.57;70.61;97354.13;5064455;28;20053;-79
2021/11/10 04:17:29;;;;;;;17.60;12.38;;;;;;;3.50;70.92;97355.56;5073872;28;20059;-81
2021/11/10 04:19:57;;;;;;;15.18;11.95;;;;;;;3.49;71.18;97356.47;5073762;28;20049;-78
2021/11/10 04:22:26;;;;;;;14.05;11.10;;;;;;;3.53;71.59;97350.16;5056197;28;20052;-77
2021/11/10 04:24:53;;;;;;;16.25;11.70;;;;;;;3.57;70.86;97343.00;5054021;28;20060;-77
2021/11/10 04:27:22;;;;;;;19.17;12.88;;;;;;;3.55;70.75;97337.94;5052892;28;20114;-77
2021/11/10 04:29:51;;;;;;;18.30;11.40;;;;;;;3.54;70.96;97322.59;5060993;28;20056;-81
2021/11/10 04:32:19;;;;;;;20.00;12.65;;;;;;;3.55;71.34;97324.25;5074038;28;20053;-81
2021/11/10 04:34:47;;;;;;;16.02;11.18;;;;;;;3.53;71.02;97336.44;5063898;28;20060;-77
2021/11/10 04:37:15;;;;;;;16.13;11.32;;;;;;;3.51;71.31;97334.78;5052454;28;20060;-76
2021/11/10 04:39:44;;;;;;;17.42;12.45;;;;;;;3.49;71.38;97341.81;5052082;28;20067;-76
2021/11/10 04:42:12;;;;;;;17.15;12.27;;;;;;;3.49;71.24;97328.09;5052176;28;20060;-77
2021/11/10 04:44:39;;;;;;;14.40;11.43;;;;;;;3.53;71.42;97329.50;5052245;28;20048;-76
2021/11/10 04:47:07;;;;;;;16.83;11.57;;;;;;;3.54;71.00;97331.13;5051886;28;20053;-76
2021/11/10 04:49:35;;;;;;;17.40;12.02;;;;;;;3.50;71.27;97333.16;5051852;28;20045;-77
2021/11/10 04:52:04;;;;;;;18.42;12.00;;;;;;;3.52;71.84;97335.63;5052185;28;20053;-76
2021/11/10 04:54:32;;;;;;;17.38;12.43;;;;;;;3.54;72.25;97338.88;5052622;28;20048;-77
2021/11/10 04:57:03;;;;;;;18.77;12.70;;;;;;;3.53;71.71;97337.25;5056961;28;20056;-77
2021/11/10 04:59:31;;;;;;;18.33;12.70;;;;;;;3.47;71.62;97333.38;5048560;28;20422;-78
2021/11/10 05:02:23;;;;;;;19.77;12.93;;;;;;;3.44;71.65;97340.56;5051363;28;20048;-77
2021/11/10 05:04:52;;;;;;;20.60;13.15;;;;;;;3.37;71.56;97336.78;5051531;28;20059;-78
2021/11/10 05:07:20;;;;;;;21.85;13.73;;;;;;;3.33;71.51;97332.81;5051537;28;20053;-76
2021/11/10 05:09:49;;;;;;;21.77;13.32;;;;;;;3.32;72.17;97333.75;5051347;28;20064;-77
2021/11/10 05:12:18;;;;;;;20.33;14.10;;;;;;;3.35;72.26;97338.69;5051926;28;20064;-77
2021/11/10 05:14:46;;;;;;;20.92;15.02;;;;;;;3.40;72.30;97341.72;5055635;28;20059;-77
2021/11/10 05:17:14;;;;;;;18.58;14.20;;;;;;;3.49;72.33;97341.00;5056024;28;20052;-76
2021/11/10 05:19:41;;;;;;;21.42;14.60;;;;;;;3.54;71.79;97328.56;5056215;28;20091;-76
2021/11/10 05:22:29;;;;;;;17.90;12.75;;;;;;;3.60;71.92;97332.44;5055591;28;20055;-78
2021/11/10 05:24:57;;;;;;;21.05;14.25;;;;;;;3.65;71.29;97330.31;5059047;28;20053;-82
2021/11/10 05:27:28;;;;;;;17.38;11.98;;;;;;;3.67;72.06;97338.75;5060602;28;20429;-80
2021/11/10 05:29:56;;;;;;;17.48;12.20;;;;;;;3.71;72.08;97340.97;5059555;28;20107;-75
2021/11/10 05:32:23;;;;;;;21.30;14.80;;;;;;;3.79;72.39;97342.13;5058858;28;20080;-83
2021/11/10 05:34:51;;;;;;;19.08;12.30;;;;;;;3.84;72.79;97345.97;5060263;28;20048;-81
2021/11/10 05:37:19;;;;;;;17.48;11.93;;;;;;;3.87;71.37;97340.59;5058690;28;20045;-83
2021/11/10 05:39:46;;;;;;;17.00;12.55;;;;;;;3.88;71.07;97347.38;5058898;28;20049;-82
2021/11/10 05:42:14;;;;;;;17.60;11.93;;;;;;;3.85;70.67;97347.63;5058619;28;20048;-80
2021/11/10 05:44:43;;;;;;;16.65;11.20;;;;;;;3.84;70.60;97355.50;5058920;28;20621;-83
2021/11/10 05:47:10;;;;;;;15.05;11.15;;;;;;;3.85;71.50;97355.38;5058828;28;20053;-83
2021/11/10 05:49:39;;;;;;;16.50;11.15;;;;;;;3.88;70.82;97342.22;5060790;28;20068;-86
2021/11/10 05:52:07;;;;;;;13.45;11.00;;;;;;;3.88;71.35;97346.56;5061797;28;20228;-85
2021/11/10 05:54:37;;;;;;;17.13;11.25;;;;;;;3.91;72.39;97356.63;5062198;28;20052;-86
2021/11/10 05:57:05;;;;;;;16.98;12.50;;;;;;;3.95;71.55;97364.97;5062596;28;20041;-86
2021/11/10 05:59:33;;;;;;;25.58;15.90;;;;;;;4.00;73.16;97361.09;5061758;28;20045;-84
2021/11/10 06:02:03;;;;;;;38.33;23.58;;;;;;;4.08;74.24;97355.31;5061738;28;20045;-86
2021/11/10 06:04:31;;;;;;;24.73;15.80;;;;;;;4.10;73.36;97356.81;5062646;28;20052;-87
2021/11/10 06:06:59;;;;;;;18.75;12.20;;;;;;;4.09;72.55;97355.19;5064018;28;20132;-89
2021/11/10 06:09:27;;;;;;;15.50;11.50;;;;;;;4.05;73.05;97352.97;5070136;28;20108;-89
2021/11/10 06:11:54;;;;;;;14.93;10.80;;;;;;;4.03;72.59;97358.25;5067258;28;20049;-88
2021/11/10 06:14:23;;;;;;;21.48;12.95;;;;;;;4.08;74.06;97369.03;5059783;28;20056;-89
2021/11/10 06:16:50;;;;;;;16.92;12.60;;;;;;;4.13;72.98;97372.09;5060889;28;20060;-88
2021/11/10 06:19:20;;;;;;;16.83;12.18;;;;;;;4.16;72.62;97370.19;5065506;28;20049;-88
2021/11/10 06:21:47;;;;;;;21.25;14.45;;;;;;;4.09;71.78;97365.53;5064670;28;20404;-87
2021/11/10 06:24:17;;;;;;;22.38;14.88;;;;;;;3.98;70.91;97375.88;5060431;28;20060;-89
2021/11/10 06:26:45;;;;;;;25.88;16.48;;;;;;;3.89;70.94;97379.16;5060109;28;20049;-86
2021/11/10 06:29:12;;;;;;;24.52;15.73;;;;;;;3.86;71.17;97380.22;5060213;28;20049;-86
2021/11/10 06:31:40;;;;;;;25.75;16.63;;;;;;;3.87;71.82;97376.72;5059675;28;20055;-85
2021/11/10 06:34:08;;;;;;;21.60;15.13;;;;;;;3.89;71.60;97368.84;5060899;28;20053;-83
2021/11/10 06:36:37;;;;;;;21.77;15.85;;;;;;;3.90;72.03;97373.09;5060385;28;20046;-86
2021/11/10 06:39:05;;;;;;;21.70;14.85;;;;;;;3.92;71.85;97373.78;5060119;28;20045;-80
2021/11/10 06:41:32;;;;;;;22.45;15.07;;;;;;;3.91;72.78;97370.38;5060610;28;20087;-84
2021/11/10 06:44:00;;;;;;;20.63;16.17;;;;;;;3.92;72.53;97376.38;5059838;28;20056;-83
2021/11/10 06:46:28;;;;;;;22.67;16.17;;;;;;;3.91;72.87;97379.88;5070011;22;20053;-74
2021/11/10 06:48:56;;;;;;;22.42;16.35;;;;;;;3.90;73.14;97386.78;5033558;28;20088;-75
2021/11/10 06:51:27;;;;;;;16.10;11.87;;;;;;;3.90;72.33;97380.81;5033988;28;20049;-75
2021/11/10 06:53:57;;;;;;;21.95;15.27;;;;;;;3.84;72.05;97382.13;5033897;28;20049;-75
2021/11/10 06:56:25;;;;;;;23.98;15.18;;;;;;;3.81;72.11;97381.56;5033963;28;20057;-75
2021/11/10 06:58:52;;;;;;;22.73;15.93;;;;;;;3.80;72.05;97379.91;5034089;28;20250;-74
2021/11/10 07:01:20;;;;;;;22.80;15.20;;;;;;;3.77;71.89;97391.28;5034208;28;20052;-75
2021/11/10 07:03:48;;;;;;;20.92;14.82;;;;;;;3.77;72.14;97393.88;5033963;28;20057;-75
2021/11/10 07:06:15;;;;;;;22.27;16.00;;;;;;;3.76;71.88;97393.97;5035854;28;20049;-74
2021/11/10 07:08:43;;;;;;;24.05;15.77;;;;;;;3.72;72.10;97391.63;5035292;28;20060;-74
2021/11/10 07:11:12;;;;;;;21.52;15.10;;;;;;;3.68;71.80;97395.41;5034596;28;20046;-75
2021/11/10 07:13:39;;;;;;;22.73;15.63;;;;;;;3.70;72.33;97398.69;5040501;28;20046;-74
2021/11/10 07:16:06;;;;;;;20.55;14.95;;;;;;;3.69;72.09;97399.59;5057280;28;20128;-75
2021/11/10 07:18:34;;;;;;;23.95;16.17;;;;;;;3.69;72.35;97396.22;5054178;28;20048;-75
2021/11/10 07:21:02;;;;;;;21.88;14.60;;;;;;;3.71;72.42;97391.75;5034690;28;20041;-75
2021/11/10 07:23:29;;;;;;;23.35;17.35;;;;;;;3.78;72.35;97392.09;5034294;28;20057;-75
2021/11/10 07:25:57;;;;;;;26.35;16.63;;;;;;;3.82;72.16;97384.00;5042250;28;20033;-75
2021/11/10 07:28:26;;;;;;;23.35;16.25;;;;;;;3.87;72.31;97384.47;5033701;28;20053;-75
2021/11/10 07:30:54;;;;;;;23.63;16.10;;;;;;;4.00;73.51;97381.75;5033372;28;20060;-75
2021/11/10 07:33:21;;;;;;;23.92;16.73;;;;;;;4.12;73.59;97380.75;5033325;28;20054;-75
2021/11/10 07:35:49;;;;;;;26.23;14.98;;;;;;;4.20;72.70;97376.72;5032506;28;20061;-75
2021/11/10 07:38:23;;;;;;;23.27;16.70;;;;;;;4.27;72.32;97362.41;5033105;28;20053;-75
2021/11/10 07:40:51;;;;;;;23.95;16.08;;;;;;;4.37;72.10;97370.22;5033338;28;20056;-75
2021/11/10 07:43:19;;;;;;;25.92;17.30;;;;;;;4.38;71.60;97375.28;5033388;28;20503;-75
2021/11/10 07:45:54;;;;;;;23.95;15.90;;;;;;;4.38;71.41;97377.84;5032746;28;20054;-75
2021/11/10 07:48:22;;;;;;;23.90;16.20;;;;;;;4.46;72.46;97380.66;5033046;28;20061;-74
2021/11/10 07:50:49;;;;;;;21.83;16.27;;;;;;;4.53;71.62;97384.38;5032918;28;20057;-75
2021/11/10 07:53:17;;;;;;;30.63;17.05;;;;;;;4.53;71.16;97384.38;5032891;28;20507;-75
2021/11/10 07:55:44;;;;;;;27.52;18.23;;;;;;;4.54;70.85;97395.50;5033291;28;20112;-75
2021/11/10 07:58:12;;;;;;;29.42;16.38;;;;;;;4.57;70.81;97384.09;5032940;28;20049;-75
2021/11/10 08:00:41;;;;;;;24.08;16.17;;;;;;;4.61;70.75;97385.50;5032320;28;20049;-75
2021/11/10 08:03:10;;;;;;;20.60;15.13;;;;;;;4.67;71.66;97385.00;5032979;28;20061;-74
2021/11/10 08:05:38;;;;;;;25.42;16.45;;;;;;;4.78;71.79;97390.09;5032600;28;20045;-74
2021/11/10 08:08:06;;;;;;;25.73;16.20;;;;;;;4.87;71.09;97386.75;5032640;28;20053;-75
2021/11/10 08:10:52;;;;;;;25.48;17.38;;;;;;;4.96;70.58;97385.19;5032668;28;20521;-75
2021/11/10 08:13:20;;;;;;;24.52;17.50;;;;;;;5.04;70.41;97375.03;5032783;28;20054;-75
2021/11/10 08:15:48;;;;;;;24.17;16.85;;;;;;;5.13;70.47;97378.63;5032332;28;20136;-75
2021/11/10 08:18:17;;;;;;;27.60;18.23;;;;;;;5.22;69.57;97371.84;5032228;28;20511;-75
2021/11/10 08:20:45;;;;;;;26.30;17.88;;;;;;;5.26;69.86;97376.63;5032476;28;20057;-75
2021/11/10 08:23:18;;;;;;;26.58;18.98;;;;;;;5.32;69.24;97376.13;5032257;28;20068;-75
2021/11/10 08:25:46;;;;;;;27.52;18.90;;;;;;;5.34;69.09;97379.41;5032364;28;20045;-75
2021/11/10 08:28:13;;;;;;;26.67;18.23;;;;;;;5.35;69.24;97378.44;5032477;28;20423;-75
2021/11/10 08:30:41;;;;;;;29.88;18.52;;;;;;;5.41;69.18;97368.53;5042417;28;20068;-75
2021/11/10 08:33:09;;;;;;;26.98;19.17;;;;;;;5.51;69.08;97364.19;5032130;28;20439;-75
2021/11/10 08:35:38;;;;;;;23.55;17.35;;;;;;;5.63;68.74;97363.16;5032164;28;20454;-75
2021/11/10 08:38:06;;;;;;;25.58;18.00;;;;;;;5.76;68.87;97368.09;5032048;28;20045;-75
2021/11/10 08:40:33;;;;;;;27.35;18.55;;;;;;;5.88;68.38;97371.38;5031796;28;20543;-75
2021/11/10 08:43:01;;;;;;;28.95;17.67;;;;;;;5.98;68.09;97380.03;5032326;28;20553;-75
2021/11/10 08:45:33;;;;;;;25.70;16.15;;;;;;;6.11;68.10;97382.38;5032413;28;20053;-75
2021/11/10 08:48:04;;;;;;;27.48;17.38;;;;;;;6.23;67.24;97377.88;5035126;28;20049;-75
2021/11/10 08:50:35;;;;;;;24.85;16.88;;;;;;;6.33;67.54;97376.13;5036307;28;20049;-75
2021/11/10 08:53:05;;;;;;;25.20;16.67;;;;;;;6.47;67.14;97387.84;5036814;28;20128;-75
2021/11/10 08:55:33;;;;;;;24.90;16.65;;;;;;;6.55;67.07;97380.22;5037181;28;20049;-75
2021/11/10 08:58:01;;;;;;;25.67;16.77;;;;;;;6.65;67.97;97386.22;5036606;28;20053;-75
2021/11/10 09:00:31;;;;;;;24.17;16.83;;;;;;;6.73;67.19;97388.09;5036523;28;20400;-75
2021/11/10 09:02:59;;;;;;;23.05;17.05;;;;;;;6.76;66.36;97387.84;5036144;28;20054;-75
2021/11/10 09:05:27;;;;;;;26.77;16.92;;;;;;;6.76;66.43;97393.84;5036271;28;20462;-75
2021/11/10 09:07:55;;;;;;;28.30;17.65;;;;;;;6.81;67.07;97396.03;5036844;28;20072;-75
2021/11/10 09:10:24;;;;;;;28.15;17.30;;;;;;;6.92;67.30;97401.06;5036719;28;20053;-75
2021/11/10 09:12:52;;;;;;;26.10;16.30;;;;;;;7.02;66.89;97390.69;5036513;28;20072;-75
2021/11/10 09:15:22;;;;;;;28.15;18.10;;;;;;;7.14;66.54;97384.34;5035779;28;20056;-75
2021/11/10 09:17:50;;;;;;;21.85;15.55;;;;;;;7.25;66.18;97382.56;5035322;28;20045;-75
2021/11/10 09:20:20;;;;;;;28.60;18.70;;;;;;;7.33;65.18;97390.47;5035342;28;20049;-75
2021/11/10 09:22:54;;;;;;;20.73;16.13;;;;;;;7.43;65.06;97386.03;5035800;28;20180;-75
2021/11/10 09:25:25;;;;;;;25.27;17.50;;;;;;;7.56;66.64;97380.53;5035694;28;20049;-75
2021/11/10 09:27:53;;;;;;;21.95;15.25;;;;;;;7.67;65.24;97384.72;5035686;28;20060;-75
2021/11/10 09:30:22;;;;;;;29.40;17.17;;;;;;;7.75;64.77;97390.81;5035019;28;20076;-75
2021/11/10 09:32:52;;;;;;;22.60;17.02;;;;;;;7.84;66.45;97389.13;5035327;28;20053;-76
2021/11/10 09:35:20;;;;;;;26.13;17.88;;;;;;;7.95;66.70;97398.50;5046960;28;20045;-75
2021/11/10 09:37:52;;;;;;;24.52;16.75;;;;;;;8.02;65.14;97404.75;5057605;28;20073;-75
2021/11/10 09:40:21;;;;;;;22.27;15.90;;;;;;;8.06;63.76;97393.09;5057767;28;20049;-75
2021/11/10 09:42:50;;;;;;;24.73;15.85;;;;;;;8.07;63.55;97393.91;5055169;28;20048;-75
2021/11/10 09:45:20;;;;;;;26.15;16.55;;;;;;;8.08;64.58;97391.19;5054566;28;20054;-75
2021/11/10 09:47:49;;;;;;;24.10;16.65;;;;;;;8.09;65.82;97392.00;5050003;28;20061;-75
2021/11/10 09:50:21;;;;;;;22.58;17.20;;;;;;;8.11;67.02;97390.91;5036498;28;20379;-76
2021/11/10 09:52:49;;;;;;;23.98;17.52;;;;;;;8.13;66.86;97394.16;5035881;28;20057;-75
2021/11/10 09:55:19;;;;;;;27.80;17.60;;;;;;;8.15;67.00;97397.41;5035924;28;20431;-75
2021/11/10 09:57:47;;;;;;;32.08;18.63;;;;;;;8.18;67.37;97396.34;5036621;28;20432;-75
2021/11/10 10:00:20;;;;;;;24.83;18.00;;;;;;;8.19;66.87;97403.16;5034861;28;20076;-76
2021/11/10 10:02:48;;;;;;;;;;;;;;;8.23;67.49;97394.09;5036030;28;20056;-76
2021/11/10 10:05:17;;;;;;;22.02;16.08;;;;;;;8.21;67.33;97401.22;5035183;28;19921;-75
2021/11/10 10:07:48;;;;;;;19.65;16.10;;;;;;;8.20;67.33;97403.00;5034492;28;20053;-75
2021/11/10 10:10:16;;;;;;;24.45;16.58;;;;;;;8.19;67.09;97397.97;5034760;28;20441;-76
2021/11/10 10:12:44;;;;;;;27.10;18.92;;;;;;;8.16;66.23;97399.06;5034577;28;20053;-75
2021/11/10 10:15:12;;;;;;;23.60;15.60;;;;;;;8.11;65.28;97400.47;5034836;28;20049;-75
2021/11/10 10:17:43;;;;;;;26.67;17.27;;;;;;;8.04;64.43;97382.03;5034523;28;20172;-75
2021/11/10 10:20:22;;;;;;;24.73;16.40;;;;;;;8.02;65.37;97378.78;5034494;28;20050;-76
2021/11/10 10:22:51;;;;;;;23.52;15.60;;;;;;;8.04;65.36;97384.63;5034452;28;20050;-75
2021/11/10 10:25:19;;;;;;;26.10;16.95;;;;;;;8.12;65.28;97382.13;5034443;28;20052;-75
2021/11/10 10:27:55;;;;;;;27.02;16.25;;;;;;;8.23;68.59;97373.31;5034439;28;20400;-76
2021/11/10 10:30:27;;;;;;;24.45;16.77;;;;;;;8.37;67.37;97369.38;5034122;28;20064;-76
2021/11/10 10:32:58;;;;;;;24.48;17.67;;;;;;;8.46;68.28;97368.50;5033907;28;20046;-76
2021/11/10 10:35:35;;;;;;;27.52;17.00;;;;;;;8.53;68.44;97361.75;5034176;28;20542;-75
2021/11/10 10:38:06;;;;;;;26.80;16.60;;;;;;;8.57;66.34;97354.44;5034090;28;20049;-75
2021/11/10 10:40:34;;;;;;;25.63;16.85;;;;;;;8.56;65.57;97353.63;5033727;28;20054;-75
2021/11/10 10:43:03;;;;;;;27.27;17.98;;;;;;;8.53;65.18;97348.75;5033690;28;20045;-76
2021/11/10 10:45:34;;;;;;;21.88;16.15;;;;;;;8.55;67.53;97352.03;5033836;28;20422;-75
2021/11/10 10:48:06;;;;;;;25.60;16.92;;;;;;;8.58;65.70;97345.69;5033794;28;20512;-75
2021/11/10 10:50:37;;;;;;;28.83;18.05;;;;;;;8.56;64.80;97351.03;5036975;28;20045;-75
2021/11/10 10:53:04;;;;;;;26.73;18.85;;;;;;;8.56;64.80;97345.84;5038512;28;20049;-75
2021/11/10 10:55:34;;;;;;;27.65;18.05;;;;;;;8.63;64.18;97353.84;5039760;28;20057;-75
2021/11/10 10:58:02;;;;;;;24.48;17.50;;;;;;;8.68;64.03;97353.41;5054157;28;20050;-75
2021/11/10 11:00:31;;;;;;;22.58;16.33;;;;;;;8.71;63.97;97361.72;5052465;28;20065;-75
2021/11/10 11:03:29;;;;;;;24.65;18.15;;;;;;;8.80;66.75;97360.00;5040243;28;20045;-76
2021/11/10 11:06:00;;;;;;;24.10;17.15;;;;;;;8.84;64.94;97366.53;5033462;28;20046;-75
2021/11/10 11:08:39;;;;;;;24.17;16.90;;;;;;;8.84;64.29;97358.72;5033230;28;20061;-76
2021/11/10 11:11:25;;;;;;;23.30;16.75;;;;;;;8.85;64.55;97365.56;5032405;28;20049;-76
2021/11/10 11:13:58;;;;;;;24.42;15.90;;;;;;;8.85;63.83;97356.00;5033366;28;20045;-75
2021/11/10 11:16:37;;;;;;;24.08;15.98;;;;;;;8.85;63.41;97353.38;5033182;28;20046;-76
2021/11/10 11:19:19;;;;;;;32.00;18.95;;;;;;;8.84;63.54;97348.34;5033154;28;20053;-76
2021/11/10 11:21:51;;;;;;;28.20;19.00;;;;;;;8.79;63.58;97348.78;5033302;28;20060;-76
2021/11/10 11:24:38;;;;;;;31.83;19.73;;;;;;;8.75;63.50;97342.25;5033280;28;20474;-76
2021/11/10 11:27:19;;;;;;;25.90;18.55;;;;;;;8.74;64.13;97345.81;5033120;28;20462;-76
2021/11/10 11:29:54;;;;;;;23.08;16.92;;;;;;;8.77;66.86;97340.31;5032859;28;20400;-76
2021/11/10 11:32:25;;;;;;;29.92;19.67;;;;;;;8.80;66.37;97341.78;5033218;28;20060;-76
2021/11/10 11:34:56;;;;;;;24.08;18.23;;;;;;;8.80;66.51;97334.78;5033391;28;20415;-75
2021/11/10 11:37:26;;;;;;;28.42;18.80;;;;;;;8.80;65.42;97336.59;5032728;28;20531;-76